Time;durP1;ratioP1;P1;durP2;ratioP2;P2;SDS_P1;SDS_P2;PMS_P1;PMS_P2;Temp;Humidity;BMP_temperature;BMP_pressure;BME280_temperature;BME280_humidity;BME280_pressure;Samples;Min_cycle;Max_cycle;Signal;HPM_P1;HPM_P2
2022/03/15 00:00:59;;;;;;;10.30;5.83;;;;;;;8.71;58.90;101335.72;1737098;82;21322;-62
2022/03/15 00:03:28;;;;;;;10.78;5.97;;;;;;;8.68;58.85;101329.50;1705955;82;21039;-57
2022/03/15 00:05:56;;;;;;;8.30;5.60;;;;;;;8.86;58.20;101330.02;1736852;82;21054;-62
2022/03/15 00:08:23;;;;;;;7.90;5.20;;;;;;;8.97;57.25;101320.71;1725647;82;22910;-56
2022/03/15 00:10:57;;;;;;;9.13;5.45;;;;;;;8.74;57.83;101311.20;1704634;82;20948;-60
2022/03/15 00:13:22;;;;;;;8.68;6.20;;;;;;;8.65;58.17;101315.98;1706029;83;22401;-57
2022/03/15 00:15:50;;;;;;;9.48;6.20;;;;;;;8.63;58.34;101309.61;1737225;81;21421;-61
2022/03/15 00:18:21;;;;;;;10.85;6.37;;;;;;;8.84;57.23;101310.67;1737205;82;21545;-57
2022/03/15 00:20:49;;;;;;;10.60;6.45;;;;;;;8.64;57.85;101311.27;1705428;84;21031;-57
2022/03/15 00:23:16;;;;;;;9.90;5.92;;;;;;;8.74;58.06;101303.40;1737187;82;21084;-57
2022/03/15 00:25:45;;;;;;;9.43;6.15;;;;;;;8.68;58.19;101305.30;1705779;84;22395;-57
2022/03/15 00:28:13;;;;;;;9.28;5.92;;;;;;;8.99;56.50;101300.11;1737075;82;21125;-57
2022/03/15 00:30:42;;;;;;;9.95;5.53;;;;;;;9.06;55.92;101294.33;1706075;82;21557;-57
2022/03/15 00:33:11;;;;;;;9.35;5.85;;;;;;;8.84;56.72;101300.27;1736935;82;20983;-56
2022/03/15 00:35:39;;;;;;;8.68;5.70;;;;;;;8.85;56.69;101296.70;1707078;82;20901;-57
2022/03/15 00:38:06;;;;;;;10.25;5.78;;;;;;;9.01;56.10;101292.96;1737098;81;21148;-56
2022/03/15 00:40:34;;;;;;;9.48;5.50;;;;;;;8.93;56.28;101296.78;1705808;84;21605;-57
2022/03/15 00:43:01;;;;;;;10.18;6.35;;;;;;;9.15;55.61;101289.05;1737084;82;21533;-59
2022/03/15 00:45:28;;;;;;;9.03;5.87;;;;;;;8.98;55.57;101289.87;1706283;82;21048;-63
2022/03/15 00:47:57;;;;;;;8.85;5.67;;;;;;;8.97;55.80;101286.42;1737288;82;21082;-59
2022/03/15 00:50:26;;;;;;;9.10;6.17;;;;;;;9.16;55.19;101281.56;1725489;82;21218;-58
2022/03/15 00:52:54;;;;;;;11.10;5.97;;;;;;;9.03;55.40;101290.72;1706165;84;21111;-58
2022/03/15 00:55:21;;;;;;;10.65;6.37;;;;;;;8.88;56.11;101280.00;1705907;84;21078;-64
2022/03/15 00:57:50;;;;;;;9.45;5.97;;;;;;;8.70;56.77;101278.17;1736140;82;21016;-59
2022/03/15 01:00:21;;;;;;;9.03;5.83;;;;;;;8.54;57.31;101279.30;1736525;82;21012;-59
2022/03/15 01:02:49;;;;;;;9.75;5.87;;;;;;;8.74;56.87;101273.50;1705235;82;21169;-59
2022/03/15 01:05:16;;;;;;;8.93;5.90;;;;;;;8.81;56.93;101271.96;1737152;82;21037;-61
2022/03/15 01:07:44;;;;;;;8.83;6.25;;;;;;;8.86;56.83;101267.61;1737542;82;21454;-61
2022/03/15 01:10:11;;;;;;;7.97;5.15;;;;;;;8.86;56.76;101264.53;1737450;82;21675;-58
2022/03/15 01:12:41;;;;;;;9.93;5.97;;;;;;;8.86;56.46;101268.43;1737863;82;20988;-59
2022/03/15 01:15:09;;;;;;;8.48;5.70;;;;;;;8.84;57.05;101265.66;1737808;82;21159;-59
2022/03/15 01:17:37;;;;;;;11.75;6.17;;;;;;;8.95;56.55;101261.06;1737755;82;20941;-64
2022/03/15 01:20:06;;;;;;;10.03;6.20;;;;;;;9.03;55.73;101259.52;1737725;82;21008;-59
2022/03/15 01:22:33;;;;;;;8.35;5.40;;;;;;;9.00;55.53;101260.13;1738283;81;21521;-59
2022/03/15 01:25:01;;;;;;;9.58;6.30;;;;;;;8.94;55.67;101259.44;1738120;82;21047;-59
2022/03/15 01:27:29;;;;;;;9.18;5.75;;;;;;;8.81;55.86;101257.66;1737951;82;21457;-64
2022/03/15 01:29:57;;;;;;;9.05;5.67;;;;;;;8.85;55.95;101251.69;1737522;82;21062;-59
2022/03/15 01:32:25;;;;;;;10.05;5.85;;;;;;;8.95;55.60;101264.97;1727158;82;21498;-60
2022/03/15 01:34:53;;;;;;;8.60;5.92;;;;;;;9.11;54.90;101260.88;1738325;82;20995;-58
2022/03/15 01:37:21;;;;;;;8.50;5.50;;;;;;;9.03;54.95;101262.92;1738298;82;21504;-63
2022/03/15 01:39:50;;;;;;;8.95;5.75;;;;;;;9.13;54.92;101262.38;1737686;82;21006;-59
2022/03/15 01:42:18;;;;;;;8.90;6.05;;;;;;;8.89;55.15;101263.42;1738059;82;21073;-59
2022/03/15 01:44:46;;;;;;;9.60;5.95;;;;;;;9.13;54.56;101266.73;1738013;82;21450;-59
2022/03/15 01:47:14;;;;;;;10.13;6.12;;;;;;;9.09;54.46;101266.70;1737942;82;21057;-63
2022/03/15 01:49:41;;;;;;;10.40;6.10;;;;;;;8.83;55.03;101262.73;1737840;82;21531;-59
2022/03/15 01:52:15;;;;;;;9.10;5.70;;;;;;;8.75;55.41;101247.84;1738616;81;21155;-59
2022/03/15 01:54:43;;;;;;;10.80;5.45;;;;;;;8.63;55.88;101247.72;1738638;82;21532;-57
2022/03/15 01:57:10;;;;;;;8.48;5.83;;;;;;;8.79;55.52;101253.11;1737680;82;20959;-58
2022/03/15 01:59:39;;;;;;;9.28;5.65;;;;;;;8.68;55.70;101247.63;1738480;82;22397;-62
2022/03/15 02:02:06;;;;;;;9.25;5.70;;;;;;;8.64;55.98;101245.47;1737834;82;21094;-58
2022/03/15 02:04:36;;;;;;;9.03;5.65;;;;;;;8.62;56.19;101251.28;1737607;81;21027;-58
2022/03/15 02:07:12;;;;;;;10.38;5.55;;;;;;;8.66;56.02;101249.54;1706661;82;21529;-61
2022/03/15 02:09:41;;;;;;;7.87;5.62;;;;;;;8.74;55.85;101250.92;1736694;82;22142;-58
2022/03/15 02:12:10;;;;;;;8.90;5.55;;;;;;;8.75;55.96;101255.64;1706830;82;21023;-57
2022/03/15 02:14:39;;;;;;;8.93;5.60;;;;;;;8.87;55.49;101258.39;1702096;83;21008;-56
2022/03/15 02:17:07;;;;;;;8.73;5.30;;;;;;;8.91;55.20;101253.71;1772709;79;22169;-58
2022/03/15 02:19:36;;;;;;;8.60;6.10;;;;;;;9.01;54.76;101249.23;1764900;80;21002;-57
2022/03/15 02:22:05;;;;;;;8.63;5.90;;;;;;;8.65;55.09;101259.61;1775270;79;21045;-58
2022/03/15 02:24:34;;;;;;;10.93;5.35;;;;;;;8.55;56.06;101259.32;1774748;80;21059;-58
2022/03/15 02:27:03;;;;;;;9.93;5.47;;;;;;;8.81;55.66;101252.95;1774508;79;21004;-57
2022/03/15 02:29:31;;;;;;;10.78;6.58;;;;;;;8.90;55.13;101257.25;1774783;79;21245;-61
2022/03/15 02:32:00;;;;;;;9.08;5.95;;;;;;;8.53;56.07;101257.70;1774951;79;21050;-57
2022/03/15 02:34:28;;;;;;;11.15;5.80;;;;;;;8.31;57.20;101248.95;1775102;80;20889;-57
2022/03/15 02:36:57;;;;;;;8.55;5.17;;;;;;;8.42;57.69;101242.30;1774047;80;20971;-57
2022/03/15 02:39:25;;;;;;;10.40;6.00;;;;;;;8.61;56.99;101258.27;1769860;79;21050;-62
2022/03/15 02:41:54;;;;;;;9.55;6.05;;;;;;;8.84;55.93;101261.27;1774736;79;21528;-57
2022/03/15 02:44:23;;;;;;;10.18;5.92;;;;;;;8.81;55.54;101251.65;1762652;80;21535;-57
2022/03/15 02:46:50;;;;;;;8.08;5.20;;;;;;;8.84;55.44;101239.17;1774595;79;21094;-60
2022/03/15 02:49:18;;;;;;;10.63;6.33;;;;;;;8.88;55.12;101248.31;1775410;79;21451;-58
2022/03/15 02:51:46;;;;;;;10.93;6.60;;;;;;;8.87;55.02;101239.38;1774409;80;21063;-59
2022/03/15 02:54:14;;;;;;;9.28;6.58;;;;;;;8.94;54.69;101236.48;1775661;79;21683;-57
2022/03/15 02:56:46;;;;;;;9.55;6.35;;;;;;;8.94;54.61;101237.33;1736717;82;20958;-65
2022/03/15 02:59:14;;;;;;;11.35;5.97;;;;;;;8.92;54.54;101239.73;1736704;82;21006;-57
2022/03/15 03:01:44;;;;;;;11.18;6.78;;;;;;;8.95;54.44;101244.16;1705860;84;21258;-62
2022/03/15 03:04:12;;;;;;;11.43;6.22;;;;;;;8.79;54.91;101237.52;1736117;82;20957;-59
2022/03/15 03:06:42;;;;;;;9.75;6.50;;;;;;;8.63;55.19;101243.81;1736262;82;20872;-58
2022/03/15 03:09:16;;;;;;;11.50;6.65;;;;;;;8.68;55.42;101247.63;1718470;82;20998;-58
2022/03/15 03:11:39;;;;;;;8.93;6.12;;;;;;;8.66;55.65;101253.44;1734391;82;21054;-57
2022/03/15 03:14:08;;;;;;;10.58;6.30;;;;;;;8.52;56.41;101259.12;1727421;82;21571;-58
2022/03/15 03:16:39;;;;;;;10.70;6.45;;;;;;;8.42;56.22;101260.97;1735481;81;21568;-59
2022/03/15 03:19:08;;;;;;;11.15;6.87;;;;;;;8.65;56.45;101251.00;1736157;82;21301;-57
2022/03/15 03:21:37;;;;;;;10.60;6.58;;;;;;;8.82;55.67;101252.79;1736365;82;20951;-59
2022/03/15 03:24:06;;;;;;;10.15;6.83;;;;;;;8.70;55.85;101250.88;1735883;82;21073;-59
2022/03/15 03:26:36;;;;;;;9.75;6.67;;;;;;;8.76;55.29;101254.69;1736144;82;21145;-58
2022/03/15 03:29:12;;;;;;;12.50;7.45;;;;;;;8.73;55.52;101257.58;1736093;82;20891;-59
2022/03/15 03:31:42;;;;;;;11.97;7.30;;;;;;;8.76;55.20;101250.80;1736065;82;22442;-58
2022/03/15 03:34:11;;;;;;;12.82;7.25;;;;;;;8.68;55.21;101250.72;1735334;82;21548;-58
2022/03/15 03:36:39;;;;;;;10.58;6.55;;;;;;;8.67;55.48;101258.16;1736908;82;21084;-57
2022/03/15 03:39:06;;;;;;;11.53;7.00;;;;;;;8.85;55.03;101256.89;1735680;82;21025;-61
2022/03/15 03:41:34;;;;;;;11.63;7.22;;;;;;;8.95;54.44;101255.86;1735882;82;20971;-59
2022/03/15 03:44:02;;;;;;;11.45;7.97;;;;;;;9.04;53.85;101246.34;1735945;82;21252;-63
2022/03/15 03:46:31;;;;;;;9.98;6.80;;;;;;;8.81;54.09;101243.36;1736342;81;20935;-59
2022/03/15 03:48:59;;;;;;;12.05;7.60;;;;;;;8.78;54.03;101247.55;1735855;82;20900;-61
2022/03/15 03:51:26;;;;;;;9.80;6.80;;;;;;;8.53;54.61;101243.41;1735682;82;21042;-57
2022/03/15 03:53:54;;;;;;;11.70;7.12;;;;;;;8.56;54.80;101242.76;1735997;81;21073;-60
2022/03/15 03:56:21;;;;;;;12.18;7.50;;;;;;;8.59;54.62;101232.08;1737116;81;21279;-57
2022/03/15 03:58:49;;;;;;;11.48;7.67;;;;;;;8.22;55.79;101231.16;1737169;82;21047;-58
2022/03/15 04:01:17;;;;;;;11.38;6.87;;;;;;;8.15;56.06;101235.77;1697842;82;21081;-59
2022/03/15 04:03:44;;;;;;;12.07;7.20;;;;;;;8.02;56.46;101235.59;1717824;82;20986;-58
2022/03/15 04:06:13;;;;;;;11.93;6.95;;;;;;;7.94;57.45;101239.86;1716941;82;21012;-58
2022/03/15 04:08:45;;;;;;;11.43;7.90;;;;;;;8.12;57.33;101233.45;1717722;82;21291;-57
2022/03/15 04:11:14;;;;;;;11.25;7.22;;;;;;;8.15;57.15;101235.28;1717181;82;21422;-58
2022/03/15 04:13:43;;;;;;;14.50;8.03;;;;;;;8.03;58.23;101220.37;1717636;82;21038;-60
2022/03/15 04:16:12;;;;;;;12.50;8.05;;;;;;;8.29;57.78;101232.67;1717717;82;21129;-57
2022/03/15 04:18:41;;;;;;;12.35;8.43;;;;;;;8.32;57.63;101237.59;1718168;82;22256;-62
2022/03/15 04:21:08;;;;;;;12.47;7.92;;;;;;;8.55;56.86;101226.84;1717493;82;22316;-58
2022/03/15 04:23:36;;;;;;;11.90;7.83;;;;;;;8.60;56.59;101235.00;1717674;82;21390;-57
2022/03/15 04:26:05;;;;;;;12.93;8.38;;;;;;;8.53;56.93;101230.89;1717360;82;22274;-60
2022/03/15 04:28:32;;;;;;;12.30;7.70;;;;;;;8.61;57.04;101225.78;1719172;81;21850;-58
2022/03/15 04:31:01;;;;;;;15.43;8.28;;;;;;;8.36;57.20;101232.92;1706530;82;20980;-64
2022/03/15 04:33:30;;;;;;;14.78;8.98;;;;;;;8.52;57.76;101227.94;1717442;82;20971;-59
2022/03/15 04:35:59;;;;;;;14.50;9.45;;;;;;;8.54;57.70;101227.33;1717410;82;21524;-63
2022/03/15 04:38:28;;;;;;;16.60;9.65;;;;;;;8.41;58.56;101234.17;1713497;82;21576;-58
2022/03/15 04:40:55;;;;;;;12.95;9.40;;;;;;;8.44;58.79;101241.66;1712490;82;20995;-63
2022/03/15 04:43:22;;;;;;;16.32;10.50;;;;;;;8.62;58.55;101239.59;1716880;82;21016;-58
2022/03/15 04:45:50;;;;;;;14.65;10.25;;;;;;;8.71;58.52;101238.70;1717587;82;21182;-60
2022/03/15 04:48:20;;;;;;;11.95;8.38;;;;;;;8.76;58.28;101237.80;1717371;82;21058;-58
2022/03/15 04:50:47;;;;;;;14.38;9.88;;;;;;;8.88;58.01;101239.21;1707888;82;21529;-58
2022/03/15 04:53:15;;;;;;;14.00;9.20;;;;;;;9.00;57.38;101239.81;1716662;82;21597;-58
2022/03/15 04:55:44;;;;;;;15.38;10.30;;;;;;;8.96;57.54;101235.39;1717425;82;21133;-62
2022/03/15 04:58:12;;;;;;;16.42;9.63;;;;;;;9.04;57.59;101233.83;1714750;82;22508;-59
2022/03/15 05:00:39;;;;;;;15.28;10.20;;;;;;;8.98;57.74;101236.06;1709113;82;22482;-62
2022/03/15 05:03:06;;;;;;;14.07;8.65;;;;;;;9.04;57.99;101233.83;1711575;83;21048;-59
2022/03/15 05:05:34;;;;;;;13.68;9.43;;;;;;;8.98;58.12;101233.47;1703202;83;21049;-58
2022/03/15 05:08:01;;;;;;;14.90;9.00;;;;;;;9.00;58.20;101235.42;1712356;82;21074;-60
2022/03/15 05:13:18;;;;;;;13.75;9.73;;;;;;;9.52;56.66;101236.02;1712267;83;20933;-59
2022/03/15 05:15:47;;;;;;;15.35;8.85;;;;;;;9.85;55.51;101225.33;1712590;82;21490;-58
2022/03/15 05:18:16;;;;;;;13.00;8.80;;;;;;;9.92;54.73;101226.81;1711635;83;21068;-60
2022/03/15 05:20:43;;;;;;;13.25;8.98;;;;;;;9.82;55.07;101225.63;1711552;83;21102;-60
2022/03/15 05:23:11;;;;;;;15.50;8.95;;;;;;;9.92;55.10;101222.41;1712150;83;22483;-59
2022/03/15 05:25:39;;;;;;;14.53;8.70;;;;;;;10.03;54.77;101224.42;1684134;83;21568;-59
2022/03/15 05:28:10;;;;;;;12.15;8.08;;;;;;;10.32;54.13;101221.50;1712682;82;21103;-62
2022/03/15 05:30:37;;;;;;;13.20;8.23;;;;;;;10.46;53.95;101217.80;1712007;83;21567;-64
2022/03/15 05:33:06;;;;;;;11.53;8.18;;;;;;;10.62;53.44;101216.21;1712052;83;21023;-59
2022/03/15 05:35:34;;;;;;;12.58;8.60;;;;;;;10.87;52.71;101223.57;1712398;82;21211;-59
2022/03/15 05:38:04;;;;;;;12.88;8.63;;;;;;;10.77;52.48;101221.62;1711892;83;20984;-65
2022/03/15 05:40:32;;;;;;;13.25;9.50;;;;;;;10.91;52.00;101223.11;1711858;82;21521;-62
2022/03/15 05:42:59;;;;;;;13.20;8.68;;;;;;;11.10;51.43;101215.92;1702129;82;20995;-60
2022/03/15 05:45:27;;;;;;;14.43;9.03;;;;;;;11.07;51.16;101210.56;1712497;83;21012;-59
2022/03/15 05:47:56;;;;;;;14.30;9.28;;;;;;;10.98;51.21;101206.80;1701526;83;21280;-63
2022/03/15 05:50:24;;;;;;;13.78;8.58;;;;;;;11.18;50.27;101209.43;1680733;84;21048;-58
2022/03/15 05:52:53;;;;;;;14.35;8.98;;;;;;;10.96;49.97;101202.56;1691353;84;21538;-59
2022/03/15 05:55:22;;;;;;;12.93;9.13;;;;;;;10.91;50.08;101193.58;1686185;83;21139;-59
2022/03/15 05:57:50;;;;;;;12.55;8.48;;;;;;;11.05;49.84;101200.77;1699032;82;21011;-64
2022/03/15 06:00:18;;;;;;;13.70;8.90;;;;;;;10.84;49.97;101196.04;1708372;82;21213;-60
2022/03/15 06:02:45;;;;;;;15.58;10.48;;;;;;;10.81;50.18;101197.66;1736010;80;21542;-61
2022/03/15 06:05:12;;;;;;;14.15;10.03;;;;;;;10.94;49.84;101192.77;1745271;81;21049;-59
2022/03/15 06:07:47;;;;;;;13.22;9.90;;;;;;;10.88;49.79;101194.73;1742240;80;21561;-60
2022/03/15 06:10:15;;;;;;;14.93;9.85;;;;;;;10.71;50.04;101203.50;1737661;80;20994;-58
2022/03/15 06:12:46;;;;;;;13.03;8.63;;;;;;;10.80;50.11;101204.36;1745458;80;21805;-61
2022/03/15 06:15:16;;;;;;;13.48;8.38;;;;;;;10.54;50.81;101214.40;1745640;80;21003;-60
2022/03/15 06:17:47;;;;;;;14.30;9.53;;;;;;;10.70;50.75;101213.62;1745934;80;21136;-65
2022/03/15 06:20:16;;;;;;;16.27;10.08;;;;;;;10.94;50.45;101220.66;1745590;80;21361;-61
2022/03/15 06:22:49;;;;;;;18.55;10.78;;;;;;;11.01;50.59;101220.83;1728546;80;21071;-61
2022/03/15 06:25:19;;;;;;;13.58;9.85;;;;;;;11.28;50.05;101208.75;1721817;81;21311;-61
2022/03/15 06:27:47;;;;;;;15.15;8.73;;;;;;;11.44;49.75;101211.38;1676522;82;21169;-62
2022/03/15 06:30:20;;;;;;;12.53;8.15;;;;;;;11.59;49.51;101210.67;1699571;83;21094;-59
2022/03/15 06:32:45;;;;;;;12.98;8.98;;;;;;;11.77;49.03;101209.17;1723344;81;21024;-59
2022/03/15 06:35:13;;;;;;;11.18;7.80;;;;;;;12.07;48.20;101203.72;1680418;82;20998;-60
2022/03/15 06:37:45;;;;;;;12.20;7.97;;;;;;;12.36;47.25;101196.08;1723630;82;21572;-59
2022/03/15 06:40:22;;;;;;;11.33;7.90;;;;;;;12.53;46.87;101192.05;1744087;81;20978;-58
2022/03/15 06:42:52;;;;;;;11.68;7.72;;;;;;;12.94;45.78;101186.55;1741529;82;21626;-61
2022/03/15 06:45:20;;;;;;;9.93;7.28;;;;;;;13.00;45.62;101185.36;1745235;81;20978;-59
2022/03/15 06:47:48;;;;;;;11.73;8.18;;;;;;;13.36;44.87;101177.69;1745005;81;21003;-61
2022/03/15 06:50:16;;;;;;;11.10;7.85;;;;;;;13.65;43.98;101185.77;1745220;81;21371;-58
2022/03/15 06:52:44;;;;;;;10.60;7.10;;;;;;;13.94;43.41;101193.63;1721615;82;21057;-61
2022/03/15 06:55:12;;;;;;;12.33;7.62;;;;;;;13.90;42.85;101188.91;1745160;81;21594;-64
2022/03/15 06:57:40;;;;;;;10.80;7.53;;;;;;;13.85;42.47;101181.09;1726185;80;21038;-58
2022/03/15 07:00:11;;;;;;;13.15;7.67;;;;;;;14.00;42.45;101178.97;1717188;82;21131;-59
2022/03/15 07:02:38;;;;;;;8.53;6.15;;;;;;;14.27;42.24;101173.03;1731902;82;21255;-59
2022/03/15 07:05:08;;;;;;;11.75;7.72;;;;;;;14.55;41.68;101166.63;1740902;82;20918;-61
2022/03/15 07:07:37;;;;;;;9.93;7.03;;;;;;;14.70;41.07;101178.38;1725257;82;22359;-60
2022/03/15 07:10:07;;;;;;;9.43;6.80;;;;;;;14.84;40.94;101192.42;1736364;80;22272;-59
2022/03/15 07:12:36;;;;;;;12.77;9.17;;;;;;;15.05;40.29;101200.80;1708351;81;21343;-60
2022/03/15 07:15:06;;;;;;;12.47;8.00;;;;;;;15.02;39.13;101200.66;1678944;83;21800;-64
2022/03/15 07:17:35;;;;;;;13.70;9.43;;;;;;;15.00;39.22;101202.69;1680120;83;22583;-60
2022/03/15 07:20:05;;;;;;;14.53;9.43;;;;;;;15.00;39.17;101201.84;1690843;82;21108;-57
2022/03/15 07:22:32;;;;;;;12.73;9.20;;;;;;;15.05;38.58;101198.17;1702333;83;21684;-59
2022/03/15 07:25:00;;;;;;;11.30;8.50;;;;;;;15.15;38.37;101196.52;1706568;83;20965;-62
2022/03/15 07:27:27;;;;;;;12.63;9.03;;;;;;;15.30;38.33;101199.86;1703909;83;21325;-59
2022/03/15 07:29:56;;;;;;;10.77;8.10;;;;;;;15.46;37.42;101197.48;1705584;84;21202;-61
2022/03/15 07:32:24;;;;;;;12.07;8.13;;;;;;;15.39;37.17;101204.50;1696409;82;21404;-60
2022/03/15 07:34:52;;;;;;;12.13;8.43;;;;;;;15.33;37.55;101206.86;1705289;82;21213;-64
2022/03/15 07:37:19;;;;;;;11.57;8.77;;;;;;;15.07;37.65;101212.71;1707096;82;21945;-58
2022/03/15 07:39:47;;;;;;;13.67;8.77;;;;;;;15.06;37.69;101214.23;1709765;82;21333;-58
2022/03/15 07:42:15;;;;;;;12.07;8.13;;;;;;;15.22;37.42;101210.02;1737020;80;21983;-60
2022/03/15 07:44:42;;;;;;;12.73;8.03;;;;;;;15.14;37.47;101207.52;1739529;80;21287;-61
2022/03/15 07:47:10;;;;;;;13.77;7.97;;;;;;;15.05;37.48;101215.23;1738237;81;21137;-59
2022/03/15 07:49:37;;;;;;;13.40;7.83;;;;;;;15.09;37.16;101217.29;1737482;82;21226;-57
2022/03/15 07:52:06;;;;;;;12.90;9.70;;;;;;;14.89;37.38;101220.72;1737622;82;21278;-58
2022/03/15 07:54:34;;;;;;;12.13;8.13;;;;;;;14.88;37.21;101222.54;1725424;80;21714;-65
2022/03/15 07:57:02;;;;;;;12.77;7.90;;;;;;;14.53;37.55;101215.02;1737648;80;21367;-59
2022/03/15 07:59:29;;;;;;;12.00;7.87;;;;;;;14.33;37.47;101216.09;1736952;80;21233;-60
2022/03/15 08:01:56;;;;;;;14.75;9.73;;;;;;;14.10;37.79;101224.08;1730725;80;21309;-60
2022/03/15 08:04:23;;;;;;;13.53;7.62;;;;;;;13.83;38.38;101223.73;1725294;80;21151;-57
2022/03/15 08:06:51;;;;;;;10.75;7.15;;;;;;;13.70;38.81;101228.77;1737693;80;20996;-63
2022/03/15 08:09:20;;;;;;;11.08;7.55;;;;;;;13.55;39.13;101221.38;1727897;80;21049;-59
2022/03/15 08:11:48;;;;;;;14.98;7.80;;;;;;;13.30;39.99;101232.60;1736571;81;21059;-60
2022/03/15 08:14:17;;;;;;;15.05;8.13;;;;;;;13.07;40.93;101243.06;1737014;81;21119;-58
2022/03/15 08:16:45;;;;;;;14.33;8.40;;;;;;;12.75;42.12;101244.08;1737887;81;21180;-58
2022/03/15 08:19:14;;;;;;;14.00;8.05;;;;;;;12.52;43.54;101251.89;1738807;81;20932;-61
2022/03/15 08:21:41;;;;;;;11.93;8.03;;;;;;;12.54;43.93;101254.66;1738118;81;20888;-57
2022/03/15 08:24:08;;;;;;;14.10;8.98;;;;;;;12.00;45.13;101261.56;1737834;81;20963;-58
2022/03/15 08:26:37;;;;;;;12.82;8.55;;;;;;;11.77;46.06;101262.22;1738060;81;20992;-57
2022/03/15 08:29:06;;;;;;;13.48;9.30;;;;;;;11.76;46.72;101270.23;1737718;81;21164;-58
2022/03/15 08:31:34;;;;;;;14.47;8.45;;;;;;;11.70;48.84;101270.39;1736819;81;21439;-58
2022/03/15 08:34:01;;;;;;;14.00;8.60;;;;;;;11.45;50.82;101278.27;1738120;81;22031;-58
2022/03/15 08:36:29;;;;;;;14.28;8.63;;;;;;;11.53;52.67;101277.94;1738003;81;21091;-58
2022/03/15 08:38:56;;;;;;;14.05;9.45;;;;;;;11.45;53.65;101282.18;1737469;81;21063;-59
2022/03/15 08:41:25;;;;;;;15.35;9.55;;;;;;;11.53;53.32;101290.99;1726160;81;21161;-63
2022/03/15 08:43:54;;;;;;;14.33;9.95;;;;;;;11.30;55.28;101289.03;1737066;81;21288;-60
2022/03/15 08:46:21;;;;;;;14.87;9.65;;;;;;;11.29;54.96;101291.32;1737872;81;20932;-62
2022/03/15 08:48:49;;;;;;;16.07;10.35;;;;;;;10.96;55.08;101300.39;1737450;81;20865;-61
2022/03/15 08:51:17;;;;;;;14.87;10.15;;;;;;;10.95;54.31;101302.69;1737670;81;21099;-60
2022/03/15 08:53:45;;;;;;;13.48;9.75;;;;;;;10.86;54.44;101306.23;1737474;81;21277;-62
2022/03/15 08:56:13;;;;;;;15.60;9.58;;;;;;;10.72;53.95;101304.25;1737700;81;20996;-60
2022/03/15 08:58:41;;;;;;;14.20;10.00;;;;;;;10.42;54.85;101310.33;1737679;81;21012;-64
2022/03/15 09:01:08;;;;;;;15.30;10.45;;;;;;;10.39;55.09;101309.81;1737467;81;21581;-59
2022/03/15 09:03:36;;;;;;;16.10;9.70;;;;;;;10.64;55.07;101306.31;1737208;81;21059;-59
2022/03/15 09:06:05;;;;;;;17.60;10.03;;;;;;;10.56;55.55;101306.78;1737591;81;21088;-58
2022/03/15 09:08:32;;;;;;;16.30;11.12;;;;;;;10.66;57.83;101306.17;1737378;81;21054;-61
2022/03/15 09:11:03;;;;;;;15.60;10.65;;;;;;;10.90;57.80;101308.84;1737449;81;21035;-58
2022/03/15 09:13:30;;;;;;;17.65;10.95;;;;;;;10.89;58.43;101312.44;1737978;81;21003;-61
2022/03/15 09:15:58;;;;;;;13.93;9.90;;;;;;;10.91;57.92;101310.50;1737023;81;21055;-58
2022/03/15 09:18:26;;;;;;;18.30;11.73;;;;;;;10.83;56.60;101311.75;1738344;81;21279;-62
2022/03/15 09:20:54;;;;;;;19.02;10.88;;;;;;;10.72;56.13;101310.77;1736446;81;21061;-62
2022/03/15 09:23:21;;;;;;;16.02;10.93;;;;;;;10.91;56.68;101316.17;1736770;81;21058;-58
2022/03/15 09:25:49;;;;;;;17.17;12.13;;;;;;;11.04;57.38;101316.55;1737337;81;21521;-58
2022/03/15 09:28:17;;;;;;;17.57;10.98;;;;;;;11.20;56.95;101323.59;1738368;81;21134;-59
2022/03/15 09:30:45;;;;;;;14.87;9.98;;;;;;;11.27;54.00;101321.97;1737547;81;21466;-59
2022/03/15 09:33:14;;;;;;;14.40;8.90;;;;;;;11.31;51.81;101331.11;1738175;81;21368;-59
2022/03/15 09:35:44;;;;;;;12.18;7.58;;;;;;;11.19;50.14;101333.71;1737085;81;21121;-59
2022/03/15 09:38:11;;;;;;;10.32;6.60;;;;;;;11.29;47.75;101319.19;1737380;81;21111;-60
2022/03/15 09:40:38;;;;;;;11.12;6.87;;;;;;;11.15;45.91;101331.91;1728638;80;20908;-61
2022/03/15 09:43:06;;;;;;;10.32;6.37;;;;;;;11.08;46.06;101335.31;1737276;80;22338;-60
2022/03/15 09:45:35;;;;;;;9.58;6.05;;;;;;;11.19;45.78;101341.05;1741679;81;21011;-64
2022/03/15 09:48:06;;;;;;;9.08;5.60;;;;;;;11.55;45.46;101343.86;1738044;81;21066;-61
2022/03/15 09:50:34;;;;;;;7.67;4.70;;;;;;;11.55;44.78;101355.61;1738130;81;26702;-59
2022/03/15 09:53:01;;;;;;;7.95;4.10;;;;;;;11.63;43.70;101359.05;1737254;81;20980;-59
2022/03/15 09:55:30;;;;;;;9.00;3.87;;;;;;;11.78;42.37;101354.47;1737966;81;21153;-63
2022/03/15 09:57:57;;;;;;;6.12;3.37;;;;;;;11.56;41.52;101365.09;1738301;81;20949;-58
2022/03/15 10:00:25;;;;;;;9.23;3.75;;;;;;;11.55;42.38;101367.35;1737663;81;21461;-63
2022/03/15 10:02:52;;;;;;;6.85;3.08;;;;;;;11.71;42.46;101367.39;1733659;81;21016;-59
2022/03/15 10:05:19;;;;;;;4.00;2.17;;;;;;;12.22;42.16;101368.02;1722734;82;21572;-59
2022/03/15 10:07:47;;;;;;;5.55;2.77;;;;;;;12.43;40.22;101364.06;1722100;83;22254;-62
2022/03/15 10:10:15;;;;;;;4.67;2.15;;;;;;;12.20;39.58;101366.07;1724115;81;21614;-59
2022/03/15 10:12:42;;;;;;;3.98;1.98;;;;;;;12.04;39.06;101381.27;1723876;81;20983;-59
2022/03/15 10:15:19;;;;;;;5.17;2.37;;;;;;;11.62;39.28;101375.69;1724063;80;21086;-58
2022/03/15 10:17:55;;;;;;;6.78;3.40;;;;;;;11.48;40.03;101375.50;1708019;83;21102;-60
2022/03/15 10:20:31;;;;;;;4.87;2.60;;;;;;;11.27;40.89;101379.39;1750380;81;21320;-64
2022/03/15 10:23:00;;;;;;;4.62;2.30;;;;;;;11.54;41.13;101378.78;1727061;81;21121;-58
2022/03/15 10:25:27;;;;;;;6.15;2.83;;;;;;;11.71;40.33;101371.30;1723376;81;20971;-58
2022/03/15 10:27:57;;;;;;;4.70;2.35;;;;;;;11.94;39.41;101368.87;1723165;81;21126;-60
2022/03/15 10:30:26;;;;;;;5.30;2.33;;;;;;;12.16;38.37;101370.00;1711853;81;21089;-63
2022/03/15 10:32:54;;;;;;;3.87;2.02;;;;;;;12.32;37.37;101371.77;1742945;82;21394;-59
2022/03/15 10:35:27;;;;;;;4.95;2.27;;;;;;;12.54;37.29;101360.59;1723353;81;20982;-60
2022/03/15 10:37:54;;;;;;;4.03;2.47;;;;;;;12.88;36.83;101366.02;1722876;83;21619;-57
2022/03/15 10:40:37;;;;;;;8.15;3.10;;;;;;;13.21;35.96;101353.55;1718247;81;21587;-62
2022/03/15 10:43:10;;;;;;;4.45;2.35;;;;;;;13.73;35.21;101348.14;1719635;82;20891;-58
2022/03/15 10:45:41;;;;;;;4.35;2.37;;;;;;;13.66;33.85;101345.41;1723276;81;21259;-58
2022/03/15 10:48:23;;;;;;;3.93;2.00;;;;;;;13.30;34.23;101353.05;1722389;83;20999;-61
2022/03/15 10:51:01;;;;;;;4.40;2.25;;;;;;;13.30;33.71;101355.17;1722947;83;20990;-57
2022/03/15 10:53:39;;;;;;;4.45;2.20;;;;;;;13.29;33.35;101357.45;1712328;83;22429;-57
2022/03/15 10:56:23;;;;;;;4.00;2.20;;;;;;;13.13;33.97;101361.45;1723102;81;20943;-58
2022/03/15 10:59:01;;;;;;;5.45;2.08;;;;;;;12.85;33.21;101368.47;1722241;83;21226;-60
2022/03/15 11:01:31;;;;;;;3.75;1.60;;;;;;;11.99;33.72;101363.97;1721995;83;20983;-63
2022/03/15 11:04:06;;;;;;;4.97;2.25;;;;;;;11.86;33.81;101368.39;1723235;81;21107;-59
2022/03/15 11:06:40;;;;;;;3.60;1.90;;;;;;;11.31;34.89;101378.09;1721468;83;21011;-62
2022/03/15 11:09:26;;;;;;;5.12;2.47;;;;;;;11.38;34.85;101383.01;1722705;81;20939;-59
2022/03/15 11:12:05;;;;;;;4.60;1.65;;;;;;;11.36;34.87;101378.42;1722731;82;21477;-59
2022/03/15 11:14:47;;;;;;;3.45;1.62;;;;;;;11.52;33.85;101372.92;1722622;83;22467;-57
2022/03/15 11:17:20;;;;;;;5.05;1.60;;;;;;;11.29;32.87;101380.06;1722698;83;21082;-58
2022/03/15 11:19:57;;;;;;;5.25;1.50;;;;;;;11.48;33.19;101374.20;1723052;81;20979;-63
2022/03/15 11:22:30;;;;;;;5.17;1.75;;;;;;;12.11;32.99;101391.88;1712066;81;21043;-59
2022/03/15 11:25:18;;;;;;;3.40;1.70;;;;;;;12.52;32.28;101372.20;1705798;81;21219;-59
2022/03/15 11:27:46;;;;;;;2.25;1.10;;;;;;;12.91;29.49;101378.73;1720467;83;21455;-59
2022/03/15 11:30:15;;;;;;;3.25;1.42;;;;;;;12.68;28.65;101367.39;1722433;82;21066;-63
2022/03/15 11:32:43;;;;;;;2.92;0.98;;;;;;;12.37;28.16;101380.73;1722504;83;21070;-59
2022/03/15 11:35:12;;;;;;;2.95;1.00;;;;;;;12.16;27.50;101374.73;1723241;81;20932;-63